Time;durP1;ratioP1;P1;durP2;ratioP2;P2;SDS_P1;SDS_P2;PMS_P1;PMS_P2;Temp;Humidity;BMP_temperature;BMP_pressure;BME280_temperature;BME280_humidity;BME280_pressure;Samples;Min_cycle;Max_cycle;Signal;HPM_P1;HPM_P2
2021/06/09 00:00:48;;;;;;;29.15;16.85;;;14.90;99.90;;;;;;5089625;28;20047;-69
2021/06/09 00:03:52;;;;;;;20.45;16.25;;;14.70;99.90;;;;;;5090742;28;20071;-69
2021/06/09 00:06:57;;;;;;;29.08;16.85;;;14.70;99.90;;;;;;5090586;28;20063;-69
2021/06/09 00:10:03;;;;;;;23.73;16.95;;;14.70;99.90;;;;;;5093444;28;20362;-69
2021/06/09 00:13:07;;;;;;;27.70;17.17;;;14.70;99.90;;;;;;5094670;28;20051;-69
2021/06/09 00:16:19;;;;;;;23.73;17.15;;;14.70;99.90;;;;;;5094186;28;20047;-69
2021/06/09 00:19:25;;;;;;;21.60;16.63;;;14.80;99.90;;;;;;5093988;28;20043;-68
2021/06/09 00:22:29;;;;;;;24.08;17.73;;;14.80;99.90;;;;;;5093412;28;20296;-69
2021/06/09 00:25:33;;;;;;;23.20;16.98;;;14.90;99.90;;;;;;5093840;28;20111;-69
2021/06/09 00:28:38;;;;;;;21.45;17.08;;;14.90;99.90;;;;;;5094013;28;20047;-69
2021/06/09 00:31:41;;;;;;;23.10;16.85;;;14.90;99.90;;;;;;5072268;28;20047;-69
2021/06/09 00:34:46;;;;;;;25.33;16.98;;;15.00;99.90;;;;;;5093922;28;20395;-69
2021/06/09 00:37:50;;;;;;;22.10;17.50;;;15.00;99.90;;;;;;5092627;28;20043;-69
2021/06/09 00:40:59;;;;;;;32.70;18.65;;;15.00;99.90;;;;;;5093065;28;20051;-69
2021/06/09 00:44:05;;;;;;;21.83;17.05;;;15.00;99.90;;;;;;5093349;28;20051;-68
2021/06/09 00:47:10;;;;;;;21.30;16.20;;;15.00;99.90;;;;;;5092871;28;20051;-69
2021/06/09 00:50:14;;;;;;;23.70;18.10;;;14.90;99.90;;;;;;5086786;28;20050;-69
2021/06/09 00:53:28;;;;;;;21.77;17.52;;;15.00;99.90;;;;;;5086337;28;21338;-69
2021/06/09 00:56:37;;;;;;;24.90;17.75;;;15.00;99.90;;;;;;5091926;28;20047;-69
2021/06/09 00:59:41;;;;;;;30.40;18.02;;;15.00;99.90;;;;;;5079042;28;20043;-69
2021/06/09 01:02:45;;;;;;;24.33;18.45;;;14.90;99.90;;;;;;5092760;28;20039;-69
2021/06/09 01:05:50;;;;;;;24.10;17.67;;;14.80;99.90;;;;;;5092480;28;20051;-69
2021/06/09 01:08:54;;;;;;;22.60;17.58;;;14.90;99.90;;;;;;5092597;28;20047;-69
2021/06/09 01:11:58;;;;;;;30.08;18.10;;;14.80;99.90;;;;;;5091261;28;20043;-69
2021/06/09 01:15:04;;;;;;;25.75;18.02;;;14.70;99.90;;;;;;5078984;28;20039;-70
2021/06/09 01:18:09;;;;;;;21.88;17.50;;;14.60;99.90;;;;;;5091622;28;20039;-69
2021/06/09 01:21:14;;;;;;;27.88;19.42;;;14.70;99.90;;;;;;5086861;28;20051;-69
2021/06/09 01:24:18;;;;;;;28.05;18.27;;;14.60;99.90;;;;;;5092403;28;20047;-69
2021/06/09 01:27:24;;;;;;;28.67;18.52;;;14.60;99.90;;;;;;5081981;28;20055;-69
2021/06/09 01:30:28;;;;;;;28.38;19.88;;;14.50;99.90;;;;;;5078321;28;20046;-69
2021/06/09 01:33:32;;;;;;;24.27;18.15;;;14.40;99.90;;;;;;5092293;28;20035;-69
2021/06/09 01:36:41;;;;;;;27.58;19.40;;;14.40;99.90;;;;;;5090920;28;20387;-70
2021/06/09 01:39:46;;;;;;;26.73;18.88;;;14.30;99.90;;;;;;5091114;28;20493;-70
2021/06/09 01:42:52;;;;;;;38.40;19.17;;;14.40;99.90;;;;;;5082857;28;20047;-70
2021/06/09 01:45:58;;;;;;;50.17;18.73;;;14.30;99.90;;;;;;5079943;28;20039;-70
2021/06/09 01:49:06;;;;;;;219.82;18.45;;;14.30;99.90;;;;;;5092192;28;20043;-70
2021/06/09 01:52:12;;;;;;;77.85;14.82;;;14.30;99.90;;;;;;5091059;28;20047;-69
2021/06/09 01:55:18;;;;;;;46.90;13.77;;;14.20;99.90;;;;;;5092136;28;20043;-70
2021/06/09 01:58:24;;;;;;;204.38;18.25;;;14.20;99.90;;;;;;5092108;28;20502;-69
2021/06/09 02:01:29;;;;;;;95.75;14.13;;;14.20;99.90;;;;;;5090977;28;20062;-69
2021/06/09 02:04:33;;;;;;;69.97;13.55;;;14.20;99.90;;;;;;5092094;28;20055;-70
2021/06/09 02:07:43;;;;;;;71.63;12.95;;;14.10;99.90;;;;;;5090969;28;20051;-69
2021/06/09 02:10:47;;;;;;;21.48;11.05;;;14.00;99.90;;;;;;5090764;28;20066;-70
2021/06/09 02:13:52;;;;;;;54.25;13.52;;;14.00;99.90;;;;;;5086091;28;20054;-69
2021/06/09 02:16:56;;;;;;;89.05;14.23;;;14.00;99.90;;;;;;5091212;28;20055;-69
2021/06/09 02:20:00;;;;;;;38.00;13.50;;;13.90;99.90;;;;;;5091009;28;20055;-69
2021/06/09 02:23:09;;;;;;;42.38;12.88;;;13.80;99.90;;;;;;5089823;28;20490;-69
2021/06/09 02:26:13;;;;;;;44.90;13.57;;;13.80;99.90;;;;;;5091638;28;20047;-69
2021/06/09 02:29:17;;;;;;;23.88;12.50;;;13.80;99.90;;;;;;5091526;28;20040;-70
2021/06/09 02:32:21;;;;;;;38.53;12.07;;;13.80;99.90;;;;;;5090401;28;20047;-70
2021/06/09 02:35:25;;;;;;;250.77;17.30;;;13.80;99.90;;;;;;5091455;28;20490;-70
2021/06/09 02:38:30;;;;;;;266.38;19.80;;;13.80;99.90;;;;;;5091250;28;20058;-69
2021/06/09 02:41:34;;;;;;;66.90;13.27;;;13.90;99.90;;;;;;5090830;28;20051;-70
2021/06/09 02:44:38;;;;;;;41.08;13.32;;;13.80;99.90;;;;;;5091219;28;20047;-70
2021/06/09 02:47:46;;;;;;;32.67;12.02;;;13.80;99.90;;;;;;5070740;28;20047;-70
2021/06/09 02:50:51;;;;;;;42.20;13.05;;;13.90;99.90;;;;;;5069606;28;20055;-69
2021/06/09 02:54:10;;;;;;;16.20;12.82;;;13.90;99.90;;;;;;5071062;28;20035;-69
2021/06/09 02:57:20;;;;;;;38.10;12.48;;;14.00;99.90;;;;;;5070605;28;20048;-69
2021/06/09 03:00:48;;;;;;;43.75;12.02;;;14.10;99.90;;;;;;5069577;28;20055;-70
2021/06/09 03:04:18;;;;;;;22.90;11.05;;;14.20;99.90;;;;;;5070674;28;20044;-69
2021/06/09 03:07:30;;;;;;;11.45;10.25;;;14.30;99.90;;;;;;5070351;28;20127;-70
2021/06/09 03:10:52;;;;;;;11.50;9.88;;;14.30;99.90;;;;;;5070128;28;20103;-68
2021/06/09 03:17:39;;;;;;;11.35;10.15;;;14.30;99.90;;;;;;5069982;28;20052;-70
2021/06/09 03:20:50;;;;;;;11.45;10.15;;;14.40;99.90;;;;;;5082376;28;20051;-70
2021/06/09 03:24:23;;;;;;;11.85;9.45;;;14.40;99.90;;;;;;5090738;28;20388;-70
2021/06/09 03:27:47;;;;;;;12.07;10.40;;;14.40;99.90;;;;;;5090659;28;20044;-69
2021/06/09 03:30:57;;;;;;;13.13;10.80;;;14.30;99.90;;;;;;5089921;28;20047;-69
2021/06/09 03:34:04;;;;;;;12.40;10.98;;;14.30;99.90;;;;;;5090987;28;20098;-70
2021/06/09 03:37:09;;;;;;;14.98;10.80;;;14.30;99.90;;;;;;5089947;28;20043;-69
2021/06/09 03:40:21;;;;;;;16.83;14.18;;;14.30;99.90;;;;;;5090433;28;20047;-70
2021/06/09 03:43:28;;;;;;;22.23;15.77;;;14.30;99.90;;;;;;5094033;28;20047;-69
2021/06/09 03:46:33;;;;;;;18.08;13.20;;;14.20;99.90;;;;;;5093882;28;20524;-70
2021/06/09 03:49:39;;;;;;;211.70;18.20;;;13.90;99.90;;;;;;5094480;28;20062;-69
2021/06/09 03:52:46;;;;;;;45.95;12.77;;;13.70;99.90;;;;;;5092975;28;20039;-70
2021/06/09 03:55:54;;;;;;;302.02;19.60;;;13.70;99.90;;;;;;5094282;28;20058;-70
2021/06/09 03:59:01;;;;;;;352.50;22.90;;;13.70;99.90;;;;;;5094550;28;20039;-70
2021/06/09 04:02:08;;;;;;;75.28;12.52;;;13.60;99.90;;;;;;5092055;28;20047;-70
2021/06/09 04:05:15;;;;;;;73.53;12.70;;;13.60;99.90;;;;;;5093803;28;20486;-70
2021/06/09 04:08:20;;;;;;;93.63;15.13;;;13.50;99.90;;;;;;5092467;28;20529;-70
2021/06/09 04:11:26;;;;;;;33.05;12.38;;;13.60;99.90;;;;;;5090726;28;20043;-69
2021/06/09 04:14:44;;;;;;;15.07;11.68;;;13.70;99.90;;;;;;5091979;28;20035;-69
2021/06/09 04:17:51;;;;;;;16.45;13.48;;;13.80;99.90;;;;;;5092994;28;20386;-69
2021/06/09 04:20:57;;;;;;;29.30;15.57;;;13.90;99.90;;;;;;5092787;28;20051;-69
2021/06/09 04:24:02;;;;;;;21.25;13.82;;;14.00;99.90;;;;;;5094118;28;20054;-70
2021/06/09 04:27:10;;;;;;;15.45;11.85;;;14.10;99.90;;;;;;5092584;28;20743;-70
2021/06/09 04:30:16;;;;;;;22.65;14.15;;;14.20;99.90;;;;;;5087118;28;20028;-70
2021/06/09 04:33:29;;;;;;;19.48;10.85;;;15.10;99.90;;;;;;5091255;28;20039;-69
2021/06/09 04:36:34;;;;;;;13.23;10.00;;;16.40;99.90;;;;;;5092999;28;20051;-70
2021/06/09 04:39:38;;;;;;;13.90;8.90;;;17.30;99.90;;;;;;5093550;28;20054;-69
2021/06/09 04:42:44;;;;;;;9.80;8.23;;;17.20;99.90;;;;;;5091974;28;20056;-70
2021/06/09 04:45:48;;;;;;;13.85;7.35;;;17.80;99.90;;;;;;5090666;28;20051;-70
2021/06/09 04:49:10;;;;;;;13.77;7.68;;;19.10;99.90;;;;;;5087668;28;20051;-69
2021/06/09 04:52:15;;;;;;;10.05;8.65;;;16.40;99.90;;;;;;5085162;28;20533;-69
2021/06/09 04:55:20;;;;;;;11.90;8.10;;;17.80;99.90;;;;;;5093346;28;20047;-69
2021/06/09 04:58:25;;;;;;;8.27;6.28;;;18.80;99.90;;;;;;5091762;28;20054;-70
2021/06/09 05:01:31;;;;;;;17.23;7.50;;;20.60;99.90;;;;;;5081867;28;20064;-69
2021/06/09 05:04:35;;;;;;;14.50;6.40;;;20.20;99.90;;;;;;5048362;28;20501;-68
2021/06/09 05:07:39;;;;;;;6.68;5.88;;;21.30;99.90;;;;;;5052569;28;20055;-69
2021/06/09 05:10:43;;;;;;;13.10;6.63;;;22.10;99.90;;;;;;5066540;28;20553;-69
2021/06/09 05:13:52;;;;;;;8.35;6.22;;;18.70;99.90;;;;;;5068227;28;20032;-70
2021/06/09 05:16:59;;;;;;;8.77;6.00;;;20.40;99.90;;;;;;5064158;28;20547;-69
2021/06/09 05:20:08;;;;;;;7.43;5.43;;;20.20;99.90;;;;;;5068616;28;20441;-69
2021/06/09 05:23:28;;;;;;;12.20;5.75;;;21.30;99.90;;;;;;5071143;28;20043;-69
2021/06/09 05:26:33;;;;;;;78.32;6.60;;;20.10;99.90;;;;;;5083195;28;20047;-69
2021/06/09 05:29:38;;;;;;;9.10;4.90;;;20.30;99.90;;;;;;5068571;28;20071;-70
2021/06/09 05:32:44;;;;;;;15.40;5.65;;;20.00;99.90;;;;;;5089988;28;20034;-69
2021/06/09 05:35:53;;;;;;;68.28;7.13;;;21.20;99.90;;;;;;5090837;28;20042;-69
2021/06/09 05:38:58;;;;;;;6.18;5.40;;;19.90;99.90;;;;;;5073156;28;20055;-69
2021/06/09 05:42:05;;;;;;;12.07;5.38;;;20.00;99.90;;;;;;5090439;28;20051;-70
2021/06/09 05:45:10;;;;;;;7.40;4.75;;;20.30;99.90;;;;;;5073195;28;20044;-69
2021/06/09 05:48:15;;;;;;;9.00;5.47;;;21.00;99.90;;;;;;5072379;28;20403;-69
2021/06/09 05:51:22;;;;;;;7.72;5.65;;;21.70;99.90;;;;;;5089078;28;20627;-69
2021/06/09 05:54:39;;;;;;;7.60;5.30;;;22.30;99.90;;;;;;5073574;28;20062;-70
2021/06/09 05:57:44;;;;;;;5.00;4.57;;;23.00;99.90;;;;;;5077964;28;20702;-70
2021/06/09 06:01:00;;;;;;;7.88;5.60;;;22.10;99.90;;;;;;5073919;28;20054;-69
2021/06/09 06:04:06;;;;;;;8.13;5.18;;;22.60;99.90;;;;;;5076301;28;20050;-69
2021/06/09 06:07:11;;;;;;;8.23;4.97;;;22.50;99.90;;;;;;5078364;28;20043;-69
2021/06/09 06:10:15;;;;;;;7.75;5.82;;;22.30;99.90;;;;;;5076862;28;20430;-70
2021/06/09 06:13:24;;;;;;;8.32;6.28;;;22.10;99.90;;;;;;5067395;28;20047;-70
2021/06/09 06:16:30;;;;;;;8.88;6.10;;;21.40;99.90;;;;;;5073226;28;20047;-69
2021/06/09 06:19:36;;;;;;;7.90;5.40;;;21.30;99.90;;;;;;5076784;28;20427;-69
2021/06/09 06:22:42;;;;;;;6.32;5.40;;;22.40;99.90;;;;;;5074097;28;20413;-69
2021/06/09 06:25:46;;;;;;;9.38;6.60;;;22.30;99.90;;;;;;5077925;28;20118;-70
2021/06/09 06:28:54;;;;;;;10.40;6.50;;;22.10;99.90;;;;;;5088933;28;20059;-70
2021/06/09 06:32:01;;;;;;;8.82;5.45;;;21.10;99.90;;;;;;5078824;28;20047;-69
2021/06/09 06:35:06;;;;;;;7.20;5.65;;;22.00;99.90;;;;;;5076947;28;20409;-70
2021/06/09 06:38:10;;;;;;;6.28;4.75;;;22.50;99.90;;;;;;5068691;28;20501;-70
2021/06/09 06:41:17;;;;;;;8.27;5.35;;;23.50;99.90;;;;;;5078639;28;20055;-70
2021/06/09 06:44:21;;;;;;;7.68;4.97;;;24.20;99.90;;;;;;5086720;28;20051;-70
2021/06/09 06:47:28;;;;;;;5.72;5.22;;;24.40;99.90;;;;;;5079113;28;20383;-69
2021/06/09 06:50:33;;;;;;;5.40;4.90;;;23.00;99.90;;;;;;5078747;28;20036;-69
2021/06/09 06:53:43;;;;;;;5.40;4.70;;;24.60;99.90;;;;;;5089683;28;20047;-70
2021/06/09 06:56:53;;;;;;;5.55;4.75;;;25.70;99.90;;;;;;5089981;28;20046;-70
2021/06/09 07:00:00;;;;;;;7.88;4.78;;;25.90;99.90;;;;;;5073938;28;20047;-69
2021/06/09 07:03:08;;;;;;;7.03;4.60;;;26.60;99.90;;;;;;5070500;28;20837;-69
2021/06/09 07:06:13;;;;;;;6.55;4.03;;;27.40;99.90;;;;;;5080531;28;20055;-69
2021/06/09 07:09:21;;;;;;;6.28;3.78;;;28.30;99.90;;;;;;5071953;28;20063;-69
2021/06/09 07:12:25;;;;;;;10.70;4.05;;;28.60;99.90;;;;;;5077030;28;20047;-69
2021/06/09 07:15:31;;;;;;;5.78;4.55;;;29.60;99.90;;;;;;5071124;28;20039;-70
2021/06/09 07:18:41;;;;;;;10.32;4.57;;;27.40;99.90;;;;;;5089445;28;20046;-69
2021/06/09 07:21:46;;;;;;;5.82;4.40;;;27.40;99.90;;;;;;5088230;28;20047;-70
2021/06/09 07:24:52;;;;;;;8.30;4.32;;;28.00;99.90;;;;;;5080359;28;20039;-71
2021/06/09 07:28:07;;;;;;;7.57;4.40;;;29.60;99.90;;;;;;5078225;28;20051;-70
2021/06/09 07:31:14;;;;;;;7.22;4.40;;;30.10;99.90;;;;;;5090300;28;20039;-71
2021/06/09 07:34:19;;;;;;;5.20;4.50;;;28.90;99.90;;;;;;5090244;28;20035;-70
2021/06/09 07:37:24;;;;;;;5.47;4.63;;;28.60;99.90;;;;;;5089792;28;20051;-70
2021/06/09 07:40:32;;;;;;;5.82;4.47;;;27.70;99.90;;;;;;5089995;28;20043;-70
2021/06/09 07:43:40;;;;;;;6.10;5.38;;;29.70;99.90;;;;;;5090084;28;20055;-71
2021/06/09 07:46:44;;;;;;;6.97;4.90;;;31.30;99.90;;;;;;5089358;28;20043;-69
2021/06/09 07:49:51;;;;;;;8.55;5.05;;;32.50;99.10;;;;;;5090647;28;20047;-69
2021/06/09 07:52:58;;;;;;;9.45;5.30;;;33.10;98.00;;;;;;5089777;28;20047;-70
2021/06/09 07:56:13;;;;;;;8.20;6.25;;;33.30;96.20;;;;;;5090390;28;20035;-69
2021/06/09 07:59:19;;;;;;;8.27;5.45;;;32.50;96.80;;;;;;5088251;28;20055;-70
2021/06/09 08:02:24;;;;;;;10.43;7.45;;;33.60;97.30;;;;;;5088944;28;20497;-70
2021/06/09 08:05:29;;;;;;;6.38;4.70;;;34.80;95.10;;;;;;5089851;28;20185;-70
2021/06/09 08:08:33;;;;;;;6.15;5.65;;;33.70;95.70;;;;;;5090183;28;20047;-70
2021/06/09 08:11:38;;;;;;;5.35;4.40;;;33.00;96.60;;;;;;5070166;28;20052;-70
2021/06/09 08:14:42;;;;;;;6.43;5.35;;;34.20;96.40;;;;;;5070582;28;20047;-70
2021/06/09 08:17:49;;;;;;;7.25;4.90;;;35.20;95.20;;;;;;5070653;28;20052;-71
2021/06/09 08:21:12;;;;;;;10.63;5.95;;;35.70;94.50;;;;;;5069049;28;20047;-71
2021/06/09 08:24:16;;;;;;;7.47;5.78;;;36.60;93.80;;;;;;5080854;28;20047;-71
2021/06/09 08:27:20;;;;;;;6.82;5.35;;;37.00;92.30;;;;;;5070239;28;20039;-73
2021/06/09 08:30:26;;;;;;;6.40;5.70;;;36.90;91.90;;;;;;5091044;28;20394;-70
2021/06/09 08:33:32;;;;;;;7.75;6.82;;;35.70;92.00;;;;;;5092028;28;20502;-68
2021/06/09 08:36:39;;;;;;;9.70;6.15;;;33.40;92.60;;;;;;5090971;28;20049;-68
2021/06/09 08:39:43;;;;;;;6.35;5.75;;;32.60;93.80;;;;;;5091574;28;20529;-69
2021/06/09 08:42:49;;;;;;;8.13;7.43;;;31.80;96.00;;;;;;5091360;28;20496;-69
2021/06/09 08:45:53;;;;;;;9.15;5.50;;;29.70;97.20;;;;;;5081493;28;20051;-70
2021/06/09 08:48:58;;;;;;;7.97;7.22;;;31.00;98.00;;;;;;5085881;28;20051;-70
2021/06/09 08:52:05;;;;;;;9.00;6.70;;;28.70;98.70;;;;;;5080195;28;20419;-71
2021/06/09 08:55:10;;;;;;;9.07;6.25;;;30.90;98.50;;;;;;5072452;28;20043;-70
2021/06/09 08:58:15;;;;;;;6.90;5.65;;;33.50;95.30;;;;;;5091743;28;20035;-70
2021/06/09 09:01:19;;;;;;;8.95;6.20;;;35.40;94.00;;;;;;5089282;28;20710;-72
2021/06/09 09:04:26;;;;;;;12.30;5.68;;;35.40;92.50;;;;;;5089634;28;20382;-69
2021/06/09 09:07:30;;;;;;;6.22;4.68;;;34.40;93.30;;;;;;5088955;28;20035;-70
2021/06/09 09:10:36;;;;;;;6.22;3.83;;;36.30;92.30;;;;;;5071865;28;20044;-70
2021/06/09 09:13:41;;;;;;;6.65;4.22;;;38.60;90.80;;;;;;5072851;28;20415;-70
2021/06/09 09:17:05;;;;;;;4.78;3.40;;;40.20;85.40;;;;;;5090989;28;20035;-72
2021/06/09 09:20:10;;;;;;;6.85;4.05;;;41.20;82.50;;;;;;5091151;28;20050;-69
2021/06/09 09:23:26;;;;;;;8.65;3.83;;;41.30;80.50;;;;;;5091579;28;20509;-71
2021/06/09 09:26:33;;;;;;;3.67;3.20;;;41.90;80.70;;;;;;5091869;28;20043;-67
2021/06/09 09:29:37;;;;;;;9.25;3.97;;;40.40;79.50;;;;;;5092610;28;20582;-69
2021/06/09 09:32:59;;;;;;;3.80;3.50;;;39.90;79.40;;;;;;5091753;28;20047;-68
2021/06/09 09:36:25;;;;;;;7.78;3.50;;;40.50;77.60;;;;;;5091570;28;20035;-71
2021/06/09 09:39:30;;;;;;;8.70;2.95;;;41.80;77.00;;;;;;5076504;28;20634;-69
2021/06/09 09:42:34;;;;;;;8.57;3.60;;;43.10;73.70;;;;;;5092561;28;20047;-68
2021/06/09 09:45:39;;;;;;;7.45;2.90;;;43.60;72.20;;;;;;5091038;28;20043;-68
2021/06/09 09:49:00;;;;;;;3.80;2.38;;;43.30;70.50;;;;;;5091890;28;20043;-69
2021/06/09 09:52:04;;;;;;;4.85;2.70;;;44.70;69.60;;;;;;5090007;28;20043;-69
2021/06/09 09:55:09;;;;;;;4.15;3.13;;;45.70;67.90;;;;;;5092052;28;20044;-69
2021/06/09 09:58:13;;;;;;;5.75;3.05;;;45.40;67.00;;;;;;5092316;28;20047;-69
2021/06/09 10:01:29;;;;;;;5.72;2.72;;;45.30;66.00;;;;;;5091227;28;20051;-68
2021/06/09 10:04:35;;;;;;;5.15;2.80;;;45.30;65.30;;;;;;5092024;28;20043;-69
2021/06/09 10:07:59;;;;;;;4.00;2.72;;;45.00;64.90;;;;;;5091310;28;20046;-70
2021/06/09 10:11:14;;;;;;;3.85;3.03;;;44.90;63.80;;;;;;5091296;28;20514;-68
2021/06/09 10:14:20;;;;;;;3.30;2.47;;;44.80;62.40;;;;;;5092045;28;20039;-69
2021/06/09 10:17:27;;;;;;;3.75;2.88;;;44.90;64.30;;;;;;5091476;28;20035;-69
2021/06/09 10:20:39;;;;;;;4.38;3.13;;;44.80;63.10;;;;;;5090027;28;20054;-70
2021/06/09 10:23:43;;;;;;;3.97;2.55;;;43.90;64.20;;;;;;5090582;28;20563;-68
2021/06/09 10:26:59;;;;;;;3.67;2.70;;;44.30;64.00;;;;;;5091234;28;20063;-69
2021/06/09 10:30:21;;;;;;;5.45;2.83;;;44.20;61.50;;;;;;5091368;28;20054;-70
2021/06/09 10:33:27;;;;;;;5.53;3.30;;;44.50;61.30;;;;;;5091205;28;20030;-70
2021/06/09 10:36:45;;;;;;;4.75;2.50;;;44.60;62.10;;;;;;5075455;28;20478;-68
2021/06/09 10:39:49;;;;;;;7.75;2.38;;;44.40;60.90;;;;;;5091516;28;20667;-68
2021/06/09 10:42:59;;;;;;;3.30;2.30;;;44.50;58.70;;;;;;5091127;28;20047;-69
2021/06/09 10:46:03;;;;;;;5.32;2.35;;;44.90;59.20;;;;;;5090588;28;20047;-70
2021/06/09 10:49:12;;;;;;;3.88;2.65;;;44.60;57.90;;;;;;5091298;28;20118;-69
2021/06/09 10:52:16;;;;;;;6.30;2.13;;;44.10;57.20;;;;;;5069195;28;20055;-69
2021/06/09 10:55:23;;;;;;;5.47;2.50;;;43.50;57.60;;;;;;5071234;28;20379;-69
2021/06/09 10:58:27;;;;;;;4.50;2.28;;;43.30;57.70;;;;;;5088303;28;20051;-68
2021/06/09 11:01:31;;;;;;;5.50;2.00;;;43.40;57.70;;;;;;5089938;28;20403;-69
2021/06/09 11:04:39;;;;;;;4.72;1.83;;;44.10;57.10;;;;;;5090435;28;20054;-70
2021/06/09 11:07:47;;;;;;;2.10;1.85;;;44.40;52.10;;;;;;5089594;28;20055;-70
2021/06/09 11:10:51;;;;;;;2.10;1.80;;;42.80;49.90;;;;;;5070069;28;20102;-67
2021/06/09 11:13:56;;;;;;;4.93;2.05;;;42.70;51.90;;;;;;5081586;28;20043;-67
2021/06/09 11:17:00;;;;;;;6.20;2.35;;;42.50;51.40;;;;;;5090148;28;20392;-67
2021/06/09 11:20:18;;;;;;;3.55;1.85;;;42.50;51.60;;;;;;5089772;28;20043;-67
2021/06/09 11:23:32;;;;;;;3.10;2.25;;;42.10;51.20;;;;;;5090174;28;20485;-68
2021/06/09 11:26:36;;;;;;;2.75;2.00;;;41.40;51.40;;;;;;5090281;28;20047;-67
2021/06/09 11:29:41;;;;;;;7.85;2.58;;;40.00;50.70;;;;;;5089705;28;20383;-65
2021/06/09 11:32:46;;;;;;;4.93;2.42;;;39.40;53.10;;;;;;5090320;28;20126;-66
2021/06/09 11:35:51;;;;;;;3.60;2.03;;;38.60;52.10;;;;;;5089426;28;20039;-67
2021/06/09 11:39:16;;;;;;;3.92;1.90;;;38.70;52.30;;;;;;5087969;28;20047;-64
2021/06/09 11:42:22;;;;;;;2.40;2.05;;;38.80;52.60;;;;;;5089798;28;20419;-68
2021/06/09 11:45:33;;;;;;;4.68;2.22;;;37.30;53.80;;;;;;5090508;28;20051;-69
2021/06/09 11:48:39;;;;;;;5.07;2.20;;;37.60;53.00;;;;;;5089147;28;20047;-70
2021/06/09 11:52:03;;;;;;;2.90;2.40;;;38.40;51.70;;;;;;5089194;28;20055;-68
2021/06/09 11:55:11;;;;;;;4.07;2.55;;;38.70;53.80;;;;;;5090223;28;20658;-67
2021/06/09 11:58:15;;;;;;;5.18;2.75;;;38.30;53.40;;;;;;5090367;28;20067;-68
2021/06/09 12:01:21;;;;;;;4.78;3.03;;;38.50;54.10;;;;;;5069236;28;20043;-69
2021/06/09 12:04:32;;;;;;;5.30;2.80;;;37.90;54.30;;;;;;5073603;28;20055;-68
2021/06/09 12:07:36;;;;;;;6.90;2.63;;;38.20;55.30;;;;;;5073640;28;20047;-68
2021/06/09 12:10:41;;;;;;;5.43;2.50;;;38.70;54.70;;;;;;5073531;28;20040;-68
2021/06/09 12:13:46;;;;;;;4.72;2.88;;;39.00;54.60;;;;;;5074510;28;20478;-68
2021/06/09 12:16:56;;;;;;;7.25;2.53;;;39.00;53.80;;;;;;5076037;28;20039;-68
2021/06/09 12:20:11;;;;;;;4.03;2.70;;;39.30;54.20;;;;;;5092177;28;20497;-70
2021/06/09 12:23:15;;;;;;;6.93;2.67;;;39.30;53.70;;;;;;5093562;28;20047;-69
2021/06/09 12:26:20;;;;;;;5.28;2.67;;;38.30;54.90;;;;;;5094605;28;20062;-71
2021/06/09 12:29:27;;;;;;;10.32;2.90;;;37.90;54.70;;;;;;5094070;28;20047;-68
2021/06/09 12:32:34;;;;;;;5.95;2.80;;;38.00;54.60;;;;;;5093977;28;20670;-66
2021/06/09 12:35:39;;;;;;;5.03;2.97;;;37.30;54.20;;;;;;5094164;28;20043;-68
2021/06/09 12:38:43;;;;;;;2.90;2.65;;;36.30;56.40;;;;;;5094072;28;20051;-68
2021/06/09 12:41:49;;;;;;;4.00;2.85;;;35.40;56.60;;;;;;5093767;28;20496;-68
2021/06/09 12:44:53;;;;;;;4.32;2.60;;;35.00;55.40;;;;;;5093496;28;20043;-70
2021/06/09 12:48:09;;;;;;;11.05;2.92;;;35.20;55.50;;;;;;5093505;28;20043;-67
2021/06/09 12:51:13;;;;;;;3.08;2.47;;;35.60;56.00;;;;;;5092758;28;20048;-68
2021/06/09 12:54:17;;;;;;;4.68;2.70;;;35.70;56.30;;;;;;5093617;28;20043;-66
2021/06/09 12:57:29;;;;;;;5.88;2.72;;;36.10;55.90;;;;;;5093871;28;20047;-68
2021/06/09 13:00:39;;;;;;;4.85;3.08;;;35.90;56.60;;;;;;5093092;28;20051;-70
2021/06/09 13:03:48;;;;;;;3.65;2.80;;;36.10;54.20;;;;;;5093729;28;20595;-68
2021/06/09 13:06:52;;;;;;;4.53;2.72;;;35.90;56.30;;;;;;5072878;28;20043;-68
2021/06/09 13:10:00;;;;;;;3.13;2.63;;;35.70;54.90;;;;;;5073008;28;20499;-69
2021/06/09 13:13:22;;;;;;;3.08;2.33;;;36.60;54.80;;;;;;5073331;28;20510;-70
2021/06/09 13:16:32;;;;;;;3.22;2.72;;;37.40;56.10;;;;;;5083035;28;20375;-70
2021/06/09 13:19:37;;;;;;;;;;;35.90;55.60;;;;;;5093499;28;20035;-69
2021/06/09 13:22:47;;;;;;;3.92;2.80;;;35.30;56.60;;;;;;5092379;28;20373;-70
2021/06/09 13:25:51;;;;;;;4.40;3.23;;;34.20;56.10;;;;;;5093416;28;20051;-69
2021/06/09 13:28:55;;;;;;;4.30;2.83;;;33.50;57.10;;;;;;5092419;28;20391;-70
2021/06/09 13:32:09;;;;;;;7.43;3.15;;;33.20;59.30;;;;;;5092179;28;20047;-69
2021/06/09 13:35:25;;;;;;;6.45;2.97;;;33.20;57.60;;;;;;5092975;28;20039;-70
2021/06/09 13:38:30;;;;;;;5.78;3.35;;;32.10;58.90;;;;;;5072805;28;20047;-69
2021/06/09 13:41:40;;;;;;;3.22;2.92;;;32.00;61.30;;;;;;5072094;28;20395;-70
2021/06/09 13:44:46;;;;;;;4.05;3.25;;;33.20;60.20;;;;;;5072982;28;20051;-70
2021/06/09 13:48:12;;;;;;;4.68;3.00;;;33.70;57.50;;;;;;5072489;28;20055;-69
2021/06/09 13:51:19;;;;;;;4.20;3.15;;;33.10;58.50;;;;;;5071565;28;20048;-70
2021/06/09 13:54:41;;;;;;;6.00;3.08;;;32.80;59.40;;;;;;5076005;28;20039;-70
2021/06/09 13:57:50;;;;;;;4.30;3.58;;;33.50;59.30;;;;;;5092862;28;20047;-70
2021/06/09 14:00:57;;;;;;;9.35;3.50;;;33.90;62.60;;;;;;5091783;28;20493;-71
2021/06/09 14:04:01;;;;;;;6.40;3.75;;;33.70;61.00;;;;;;5092132;28;20043;-70
2021/06/09 14:07:09;;;;;;;5.35;3.67;;;33.40;63.80;;;;;;5091674;28;20055;-69
2021/06/09 14:10:15;;;;;;;4.57;3.30;;;33.30;64.00;;;;;;5091759;28;20039;-70
2021/06/09 14:13:22;;;;;;;4.80;3.25;;;32.70;63.80;;;;;;5092061;28;20504;-69
2021/06/09 14:16:26;;;;;;;4.00;3.10;;;31.80;62.40;;;;;;5092339;28;20035;-70
2021/06/09 14:19:33;;;;;;;3.90;3.35;;;32.00;61.60;;;;;;5091982;28;20055;-68
2021/06/09 14:22:42;;;;;;;3.50;3.20;;;32.10;63.80;;;;;;5091528;28;20055;-67
2021/06/09 14:25:46;;;;;;;6.63;3.75;;;32.30;61.20;;;;;;5091829;28;20047;-69
2021/06/09 14:28:51;;;;;;;4.60;3.28;;;31.90;63.10;;;;;;5091920;28;20047;-69
2021/06/09 14:32:11;;;;;;;7.68;3.65;;;31.80;63.00;;;;;;5091356;28;20470;-69
2021/06/09 14:35:16;;;;;;;4.75;3.50;;;31.80;63.80;;;;;;5091436;28;20042;-70
2021/06/09 14:38:24;;;;;;;5.10;3.55;;;31.80;61.60;;;;;;5071242;28;20044;-70
2021/06/09 14:41:43;;;;;;;8.90;4.18;;;32.10;61.50;;;;;;5071050;28;20077;-70
2021/06/09 14:44:48;;;;;;;5.07;4.15;;;32.20;65.30;;;;;;5071548;28;20482;-70
2021/06/09 14:51:27;;;;;;;6.10;3.70;;;31.50;66.70;;;;;;5070330;28;20059;-68
2021/06/09 14:54:32;;;;;;;5.43;3.28;;;32.00;64.50;;;;;;5075521;28;20039;-70
2021/06/09 14:57:39;;;;;;;4.72;3.30;;;32.60;65.20;;;;;;5090636;28;20035;-70
2021/06/09 15:00:43;;;;;;;4.40;3.53;;;32.70;62.00;;;;;;5089709;28;20047;-70
2021/06/09 15:03:51;;;;;;;4.88;3.35;;;32.90;63.30;;;;;;5090173;28;20043;-70
2021/06/09 15:06:55;;;;;;;4.72;3.70;;;33.10;63.20;;;;;;5089740;28;20043;-70
2021/06/09 15:10:02;;;;;;;5.07;4.03;;;33.30;65.20;;;;;;5091093;28;20505;-69
2021/06/09 15:13:10;;;;;;;7.75;4.10;;;33.20;66.00;;;;;;5091447;28;20039;-68
2021/06/09 15:16:15;;;;;;;8.23;4.30;;;33.00;64.70;;;;;;5081569;28;20055;-69
2021/06/09 15:19:19;;;;;;;4.28;3.88;;;32.90;64.50;;;;;;5071083;28;20043;-69
2021/06/09 15:22:24;;;;;;;5.50;4.00;;;32.80;65.90;;;;;;5069332;28;20063;-69
2021/06/09 15:25:31;;;;;;;7.95;3.63;;;32.70;67.00;;;;;;5073045;28;20039;-70
2021/06/09 15:28:35;;;;;;;6.38;4.45;;;32.40;68.00;;;;;;5090944;28;20047;-69
2021/06/09 15:31:42;;;;;;;7.55;4.13;;;31.80;69.80;;;;;;5088156;28;20039;-68
2021/06/09 15:34:47;;;;;;;5.60;4.70;;;31.20;69.70;;;;;;5089778;28;20582;-68
2021/06/09 15:37:52;;;;;;;7.90;4.32;;;31.00;68.80;;;;;;5070104;28;20039;-69
2021/06/09 15:40:56;;;;;;;6.93;4.93;;;31.00;70.50;;;;;;5076889;28;20047;-69
2021/06/09 15:44:00;;;;;;;5.22;4.60;;;30.80;72.30;;;;;;5079608;28;20051;-68
2021/06/09 15:47:06;;;;;;;7.47;5.47;;;30.60;73.30;;;;;;5047252;28;20048;-69
2021/06/09 15:50:12;;;;;;;6.30;5.60;;;30.30;73.90;;;;;;5042740;28;20066;-69
2021/06/09 15:53:18;;;;;;;7.78;5.00;;;30.00;74.50;;;;;;5051435;28;20043;-70
2021/06/09 15:56:22;;;;;;;8.10;5.53;;;29.80;75.10;;;;;;5061296;28;20040;-69
2021/06/09 15:59:27;;;;;;;8.23;6.10;;;29.60;75.90;;;;;;5067863;28;20135;-68
2021/06/09 16:02:32;;;;;;;8.02;5.25;;;29.40;76.70;;;;;;5065411;28;20051;-69
2021/06/09 16:05:38;;;;;;;10.98;6.45;;;29.30;77.10;;;;;;5064435;28;20059;-69
2021/06/09 16:08:43;;;;;;;6.43;5.82;;;29.10;76.90;;;;;;5057239;28;20043;-68
2021/06/09 16:11:49;;;;;;;9.43;5.55;;;29.20;77.10;;;;;;5062302;28;20059;-69
2021/06/09 16:14:53;;;;;;;9.02;5.90;;;29.30;77.00;;;;;;5067792;28;21387;-70